Time;durP1;ratioP1;P1;durP2;ratioP2;P2;SDS_P1;SDS_P2;PMS_P1;PMS_P2;Temp;Humidity;BMP_temperature;BMP_pressure;BME280_temperature;BME280_humidity;BME280_pressure;Samples;Min_cycle;Max_cycle;Signal;HPM_P1;HPM_P2
2022/12/04 00:05:14;;;;;;;2.42;2.30;;;;;;;6.01;66.15;101288.03;18592031;31;20092;-59
2022/12/04 00:15:19;;;;;;;0.73;0.73;;;;;;;6.24;65.29;101292.19;18573971;31;20189;-58
2022/12/04 00:25:30;;;;;;;1.87;1.77;;;;;;;6.04;65.35;101301.09;18550048;31;20419;-58
2022/12/04 00:35:41;;;;;;;0.80;0.80;;;;;;;6.06;66.25;101296.84;18555830;32;20387;-58
2022/12/04 00:45:44;;;;;;;0.50;0.50;;;;;;;6.34;65.36;101308.03;18557208;32;20182;-58
2022/12/04 00:55:49;;;;;;;2.17;2.08;;;;;;;6.51;65.82;101312.00;18564207;32;20362;-58
2022/12/04 01:05:52;;;;;;;0.70;0.70;;;;;;;6.67;65.90;101307.28;18563051;32;20435;-58
2022/12/04 01:15:57;;;;;;;2.30;1.60;;;;;;;6.68;65.32;101289.97;18563715;32;20130;-58
2022/12/04 01:26:01;;;;;;;1.15;1.10;;;;;;;6.72;65.27;101282.31;18562082;32;20089;-58
2022/12/04 01:36:08;;;;;;;1.27;1.27;;;;;;;6.65;65.25;101293.38;18562342;32;20106;-58
2022/12/04 01:46:11;;;;;;;2.78;2.58;;;;;;;6.87;65.31;101279.25;18547517;32;20119;-58
2022/12/04 01:56:17;;;;;;;1.00;1.00;;;;;;;7.00;65.51;101285.66;18560907;32;20116;-58
2022/12/04 02:06:20;;;;;;;3.72;3.40;;;;;;;7.07;65.28;101291.94;18560972;32;20102;-58
2022/12/04 02:16:28;;;;;;;1.10;1.10;;;;;;;7.11;65.28;101313.62;18560629;32;20109;-58
2022/12/04 02:26:41;;;;;;;1.90;1.80;;;;;;;7.14;66.37;101298.16;18560382;32;20149;-59
2022/12/04 02:36:50;;;;;;;4.62;1.27;;;;;;;7.16;67.40;101276.59;18560576;32;20092;-58
2022/12/04 02:46:56;;;;;;;1.80;1.70;;;;;;;6.76;69.04;101276.41;18560121;32;20096;-58
2022/12/04 02:57:02;;;;;;;0.77;0.77;;;;;;;6.76;68.95;101272.91;18560145;32;20105;-58
2022/12/04 03:07:12;;;;;;;3.33;2.97;;;;;;;6.58;69.43;101275.88;18558815;32;20107;-58
2022/12/04 03:17:20;;;;;;;3.60;1.77;;;;;;;6.52;69.39;101284.37;18559340;32;20077;-58
2022/12/04 03:27:26;;;;;;;1.30;1.25;;;;;;;6.92;68.55;101285.47;18558747;32;20373;-58
2022/12/04 03:37:35;;;;;;;1.05;1.05;;;;;;;6.87;68.91;101274.06;18558959;32;20380;-58
2022/12/04 03:47:43;;;;;;;0.80;0.80;;;;;;;6.94;68.12;101276.00;18559222;32;20146;-58
2022/12/04 03:57:49;;;;;;;0.73;0.73;;;;;;;6.56;68.75;101275.81;18557758;32;20102;-59
2022/12/04 04:07:55;;;;;;;1.35;1.25;;;;;;;7.39;65.84;101285.78;18557617;32;20156;-58
2022/12/04 04:28:30;;;;;;;0.98;0.98;;;;;;;6.46;69.33;101291.97;18556846;32;20089;-58
2022/12/04 04:38:38;;;;;;;1.17;1.17;;;;;;;5.47;73.19;101293.25;18555709;32;20097;-58
2022/12/04 04:48:43;;;;;;;2.05;1.85;;;;;;;5.20;75.84;101285.41;18555135;32;20103;-58
2022/12/04 04:58:47;;;;;;;0.73;0.73;;;;;;;6.19;71.57;101300.69;18554573;32;20107;-58
2022/12/04 05:08:50;;;;;;;1.75;1.65;;;;;;;6.05;71.27;101292.47;18553947;32;20564;-58
2022/12/04 05:29:16;;;;;;;1.55;1.45;;;;;;;7.08;67.58;101288.50;18552599;32;20102;-58
2022/12/04 05:39:21;;;;;;;1.15;1.12;;;;;;;6.31;70.07;101287.22;18561944;32;20092;-58
2022/12/04 05:49:24;;;;;;;0.60;0.60;;;;;;;6.69;68.59;101283.94;18561743;32;20107;-58
2022/12/04 05:59:28;;;;;;;0.55;0.55;;;;;;;7.43;66.06;101275.50;18562779;32;20093;-58
2022/12/04 06:09:31;;;;;;;0.65;0.65;;;;;;;7.45;65.53;101286.84;18561280;32;20395;-58
2022/12/04 06:19:36;;;;;;;1.00;1.00;;;;;;;7.38;65.90;101308.31;18563103;31;20088;-58
2022/12/04 06:29:39;;;;;;;1.10;1.02;;;;;;;7.52;65.78;101295.66;18567361;31;20108;-58
2022/12/04 06:39:43;;;;;;;1.20;0.85;;;;;;;7.16;66.88;101305.16;18596216;31;20440;-58
2022/12/04 06:49:49;;;;;;;0.70;0.70;;;;;;;7.37;65.80;101306.56;18626411;31;20096;-58
2022/12/04 06:59:54;;;;;;;0.82;0.82;;;;;;;7.65;64.83;101294.25;18624934;31;20118;-58
2022/12/04 07:09:57;;;;;;;3.55;3.30;;;;;;;7.39;65.74;101297.06;18624624;31;20095;-58
2022/12/04 07:20:02;;;;;;;5.28;2.60;;;;;;;7.54;65.35;101283.59;18624611;31;20549;-58
2022/12/04 07:30:07;;;;;;;0.75;0.75;;;;;;;7.24;65.85;101294.06;18623960;31;20479;-58
2022/12/04 07:40:19;;;;;;;1.10;1.02;;;;;;;7.38;65.53;101302.22;18625077;31;20080;-58
2022/12/04 07:50:22;;;;;;;1.83;1.73;;;;;;;7.07;67.22;101303.19;18624003;31;20116;-58
2022/12/04 08:00:27;;;;;;;0.85;0.85;;;;;;;6.28;70.60;101297.50;18621200;31;20119;-58
2022/12/04 08:10:30;;;;;;;2.53;2.33;;;;;;;6.37;70.79;101302.97;18623846;31;20115;-58
2022/12/04 08:20:35;;;;;;;0.93;0.93;;;;;;;6.04;71.79;101314.06;18625135;31;20096;-58
2022/12/04 08:30:38;;;;;;;1.10;1.08;;;;;;;6.19;70.70;101306.75;18624873;31;20108;-58
2022/12/04 08:40:42;;;;;;;2.25;2.05;;;;;;;6.05;70.85;101305.44;18610210;31;20903;-58
2022/12/04 08:50:46;;;;;;;2.05;1.27;;;;;;;7.13;67.49;101291.22;18623725;31;20125;-58
2022/12/04 09:00:50;;;;;;;1.67;1.58;;;;;;;7.36;66.57;101282.28;18623322;31;20100;-58
2022/12/04 09:10:54;;;;;;;3.12;0.73;;;;;;;6.83;67.90;101299.91;18628991;31;20091;-58
2022/12/04 09:20:59;;;;;;;1.55;1.45;;;;;;;7.34;66.91;101299.56;18631607;31;20107;-58
2022/12/04 09:31:04;;;;;;;1.02;1.02;;;;;;;7.07;67.24;101278.94;18631005;31;20118;-58
2022/12/04 09:41:18;;;;;;;0.90;0.90;;;;;;;7.89;65.12;101275.75;18631923;31;20469;-58
2022/12/04 09:51:23;;;;;;;1.27;1.12;;;;;;;8.36;64.58;101270.66;18630393;31;20119;-58
2022/12/04 10:01:33;;;;;;;1.12;1.00;;;;;;;8.59;63.82;101268.56;18630383;31;20140;-58
2022/12/04 10:11:44;;;;;;;1.45;1.35;;;;;;;7.52;66.61;101243.69;18615246;31;20092;-58
2022/12/04 10:21:57;;;;;;;3.75;1.98;;;;;;;7.25;68.22;101233.50;18629323;31;20454;-58
2022/12/04 10:32:06;;;;;;;1.45;1.30;;;;;;;7.72;66.22;101210.34;18629066;31;20111;-58
2022/12/04 10:42:20;;;;;;;3.00;2.20;;;;;;;7.60;67.20;101199.69;18628903;31;20518;-58
2022/12/04 10:52:24;;;;;;;3.37;1.35;;;;;;;7.61;67.02;101197.16;18628564;31;20092;-58
2022/12/04 11:02:30;;;;;;;0.77;0.70;;;;;;;7.62;66.93;101182.41;18628212;31;20088;-58
2022/12/04 11:12:33;;;;;;;0.50;0.50;;;;;;;8.11;65.17;101172.19;18627992;31;20107;-58
2022/12/04 11:22:49;;;;;;;1.25;1.15;;;;;;;8.63;62.97;101149.78;18609212;31;20111;-59
2022/12/04 11:32:53;;;;;;;0.88;0.88;;;;;;;8.99;62.42;101139.13;18564635;31;20751;-58
2022/12/04 11:43:05;;;;;;;0.70;0.70;;;;;;;8.90;61.93;101125.94;18573054;31;20080;-58
2022/12/04 11:53:16;;;;;;;2.10;1.67;;;;;;;9.15;61.91;101109.00;18623493;31;20092;-59
2022/12/04 12:03:26;;;;;;;4.95;2.87;;;;;;;8.71;63.07;101102.22;18623112;31;20084;-59
2022/12/04 12:13:34;;;;;;;1.73;0.82;;;;;;;8.87;62.21;101092.94;18622875;31;20104;-59
2022/12/04 12:23:50;;;;;;;1.08;1.02;;;;;;;8.97;61.92;101093.09;18622169;31;20116;-58
2022/12/04 12:33:57;;;;;;;1.40;1.17;;;;;;;8.93;62.50;101076.53;18621752;31;20368;-58
2022/12/04 12:44:05;;;;;;;0.85;0.85;;;;;;;8.76;61.89;101076.25;18611775;31;20625;-59
2022/12/04 12:54:16;;;;;;;0.80;0.80;;;;;;;9.30;60.83;101073.59;18563815;32;20092;-59
2022/12/04 13:04:25;;;;;;;2.53;1.67;;;;;;;9.70;59.99;101071.50;18562280;32;20084;-58
2022/12/04 13:14:28;;;;;;;0.52;0.52;;;;;;;9.30;61.74;101071.88;18587550;31;20108;-59
2022/12/04 13:24:45;;;;;;;0.85;0.85;;;;;;;9.06;62.76;101063.69;18580478;31;20096;-59
2022/12/04 13:34:56;;;;;;;0.60;0.60;;;;;;;9.66;61.19;101058.41;18583621;31;20136;-59
2022/12/04 13:45:07;;;;;;;2.50;0.90;;;;;;;9.87;60.79;101051.72;18559758;32;20091;-58
2022/12/04 13:55:25;;;;;;;0.40;0.40;;;;;;;9.43;61.86;101072.88;18560194;32;20409;-59
2022/12/04 14:05:34;;;;;;;1.17;0.93;;;;;;;10.17;59.71;101086.81;18558777;32;20166;-58
2022/12/04 14:15:37;;;;;;;1.00;0.85;;;;;;;10.38;59.28;101078.28;18560646;32;20165;-59
2022/12/04 14:25:42;;;;;;;1.20;1.10;;;;;;;10.26;59.48;101073.84;18560572;32;20110;-59
2022/12/04 14:35:48;;;;;;;0.60;0.60;;;;;;;10.69;58.34;101092.53;18560285;32;20092;-58
2022/12/04 14:45:58;;;;;;;2.25;1.25;;;;;;;10.60;58.43;101089.84;18560545;32;20141;-59
2022/12/04 14:56:12;;;;;;;0.62;0.62;;;;;;;10.52;58.58;101089.78;18567857;31;20395;-58
2022/12/04 15:06:21;;;;;;;0.52;0.52;;;;;;;10.68;58.09;101090.78;18558367;31;20092;-58
2022/12/04 15:16:24;;;;;;;1.58;1.50;;;;;;;10.75;58.01;101090.84;18559520;32;20119;-59
2022/12/04 15:26:29;;;;;;;0.82;0.82;;;;;;;10.79;58.17;101097.84;18590765;31;20116;-58
2022/12/04 15:36:40;;;;;;;0.65;0.65;;;;;;;10.65;58.44;101092.50;18623216;31;20148;-59
2022/12/04 15:46:45;;;;;;;1.42;1.33;;;;;;;10.53;58.96;101099.38;18623849;31;20114;-59
2022/12/04 15:56:58;;;;;;;0.60;0.60;;;;;;;10.51;59.19;101092.38;18593140;31;20080;-59
2022/12/04 16:07:03;;;;;;;0.90;0.80;;;;;;;10.45;59.56;101118.44;18618153;31;20486;-58
2022/12/04 16:17:09;;;;;;;1.65;1.12;;;;;;;10.38;59.83;101115.72;18552781;32;20100;-58
2022/12/04 16:27:18;;;;;;;1.48;0.90;;;;;;;10.25;60.52;101119.94;18553510;31;97305;-59
2022/12/04 16:37:23;;;;;;;2.87;2.17;;;;;;;10.35;60.50;101114.81;18556099;32;20144;-59
2022/12/04 16:47:28;;;;;;;1.17;1.08;;;;;;;10.22;61.05;101121.63;18577732;31;20108;-59
2022/12/04 16:57:31;;;;;;;0.70;0.70;;;;;;;10.21;61.17;101119.88;18555820;32;20477;-58
2022/12/04 17:07:36;;;;;;;0.60;0.60;;;;;;;9.99;61.80;101122.25;18554172;32;20109;-59
2022/12/04 17:17:40;;;;;;;0.68;0.68;;;;;;;10.01;61.91;101112.72;18554536;32;20480;-59
2022/12/04 17:27:45;;;;;;;0.50;0.50;;;;;;;9.30;64.81;101118.78;18571363;31;20122;-58
2022/12/04 17:37:48;;;;;;;3.22;1.85;;;;;;;9.52;64.47;101129.50;18584932;31;20511;-58
2022/12/04 17:47:53;;;;;;;1.83;1.73;;;;;;;9.59;64.62;101138.25;18564889;32;20096;-58
2022/12/04 17:57:57;;;;;;;1.48;1.25;;;;;;;9.28;65.16;101146.50;18564443;32;20106;-58
2022/12/04 18:08:02;;;;;;;0.60;0.60;;;;;;;9.43;64.80;101139.78;18565499;31;20158;-58
2022/12/04 18:18:05;;;;;;;1.10;1.10;;;;;;;8.35;68.40;101137.12;18563908;32;20119;-58
2022/12/04 18:28:10;;;;;;;1.08;0.70;;;;;;;8.57;67.62;101142.75;18562182;32;20124;-58
2022/12/04 18:38:17;;;;;;;6.75;3.20;;;;;;;8.94;67.04;101140.78;18585554;31;20437;-58
2022/12/04 18:48:21;;;;;;;1.25;0.73;;;;;;;8.77;67.67;101153.50;18590382;31;20107;-59
2022/12/04 18:58:25;;;;;;;7.65;1.27;;;;;;;8.86;66.91;101152.78;18603561;31;20115;-58
2022/12/04 19:08:31;;;;;;;1.45;1.35;;;;;;;8.60;67.66;101161.00;18586071;31;20080;-58
2022/12/04 19:18:38;;;;;;;1.00;1.00;;;;;;;9.60;64.38;101146.97;18571249;31;20099;-58
2022/12/04 19:28:43;;;;;;;2.03;1.92;;;;;;;8.94;66.34;101150.31;18560361;32;20449;-58
2022/12/04 19:38:46;;;;;;;2.37;2.05;;;;;;;8.70;67.52;101156.88;18560377;32;20141;-58
2022/12/04 19:48:53;;;;;;;1.83;1.70;;;;;;;8.19;69.19;101165.44;18558455;32;20097;-58
2022/12/04 19:58:58;;;;;;;0.68;0.68;;;;;;;7.91;70.14;101175.25;18573071;31;20115;-58
2022/12/04 20:09:05;;;;;;;0.68;0.68;;;;;;;8.33;68.61;101177.81;18580061;31;20101;-59
2022/12/04 20:19:13;;;;;;;1.12;1.08;;;;;;;8.34;68.12;101179.56;18567985;31;20439;-58
2022/12/04 20:29:18;;;;;;;2.10;2.00;;;;;;;8.33;68.62;101172.63;18576808;31;20115;-58
2022/12/04 20:39:22;;;;;;;0.60;0.60;;;;;;;8.18;68.92;101187.09;18575904;31;20091;-59
2022/12/04 20:49:26;;;;;;;1.25;1.05;;;;;;;8.17;68.82;101190.53;18517242;31;20116;-58
2022/12/04 20:59:31;;;;;;;1.45;1.35;;;;;;;8.53;67.80;101199.06;18447611;32;20101;-58
2022/12/04 21:09:35;;;;;;;0.80;0.80;;;;;;;8.33;67.97;101193.44;18446295;32;20097;-58
2022/12/04 21:19:39;;;;;;;0.98;0.98;;;;;;;7.74;70.37;101198.31;18465346;32;20100;-55
2022/12/04 21:29:43;;;;;;;0.65;0.65;;;;;;;8.51;67.02;101192.97;18447700;32;20150;-59
2022/12/04 21:39:46;;;;;;;2.00;1.90;;;;;;;8.18;67.61;101183.59;18461791;32;20138;-59
2022/12/04 21:49:51;;;;;;;0.70;0.70;;;;;;;8.14;68.34;101198.25;18463696;32;20088;-59
2022/12/04 21:59:54;;;;;;;1.40;1.30;;;;;;;8.15;67.57;101196.56;18476017;32;20136;-59
2022/12/04 22:09:59;;;;;;;0.47;0.47;;;;;;;7.95;68.34;101193.53;18432320;32;20119;-59
2022/12/04 22:20:09;;;;;;;0.70;0.70;;;;;;;7.99;67.81;101184.97;18468670;32;20112;-59
2022/12/04 22:30:14;;;;;;;0.50;0.50;;;;;;;7.83;68.36;101191.56;18478474;32;20113;-59
2022/12/04 22:40:18;;;;;;;0.80;0.80;;;;;;;7.95;67.33;101197.00;18444961;32;20497;-58
2022/12/04 22:50:23;;;;;;;0.60;0.60;;;;;;;8.97;64.10;101189.44;18434022;32;20130;-58
2022/12/04 23:00:26;;;;;;;2.62;1.80;;;;;;;8.36;65.59;101190.03;18434893;32;20500;-59
2022/12/04 23:10:31;;;;;;;1.85;1.23;;;;;;;8.45;65.34;101177.19;18433448;32;20100;-59
2022/12/04 23:20:34;;;;;;;0.70;0.70;;;;;;;8.79;64.33;101175.25;18433271;32;20140;-59
2022/12/04 23:30:44;;;;;;;1.12;0.70;;;;;;;8.76;63.60;101174.31;18431578;32;20146;-59
2022/12/04 23:40:48;;;;;;;1.00;0.98;;;;;;;8.76;63.04;101169.97;18432527;32;20088;-59
2022/12/04 23:50:53;;;;;;;2.15;1.48;;;;;;;8.87;62.30;101170.16;18433365;32;20105;-59
